Time;durP1;ratioP1;P1;durP2;ratioP2;P2;SDS_P1;SDS_P2;PMS_P1;PMS_P2;Temp;Humidity;BMP_temperature;BMP_pressure;BME280_temperature;BME280_humidity;BME280_pressure;Samples;Min_cycle;Max_cycle;Signal;HPM_P1;HPM_P2
2023/01/07 00:01:22;;;;;;;14.57;8.82;;;;;;;5.12;74.20;101248.88;6272841;22;20545;-70
2023/01/07 00:03:50;;;;;;;12.95;8.00;;;;;;;5.07;74.31;101241.22;6273475;22;20043;-70
2023/01/07 00:06:24;;;;;;;12.60;9.13;;;;;;;5.04;74.13;101247.63;6273274;22;20020;-69
2023/01/07 00:08:54;;;;;;;12.50;9.43;;;;;;;4.99;74.18;101239.13;6273339;22;20351;-70
2023/01/07 00:11:37;;;;;;;14.13;8.55;;;;;;;5.04;73.96;101236.16;6273186;22;20337;-70
2023/01/07 00:14:06;;;;;;;16.55;8.93;;;;;;;4.98;74.34;101236.59;6273837;22;20019;-68
2023/01/07 00:16:34;;;;;;;12.95;8.07;;;;;;;5.13;74.15;101229.31;6274935;22;20107;-70
2023/01/07 00:19:02;;;;;;;11.10;8.20;;;;;;;4.92;74.30;101229.06;6274481;22;20016;-70
2023/01/07 00:21:29;;;;;;;11.38;7.65;;;;;;;4.89;74.27;101226.63;6273929;22;20019;-69
2023/01/07 00:23:59;;;;;;;10.88;8.40;;;;;;;4.92;74.85;101231.72;6273331;22;20336;-70
2023/01/07 00:26:29;;;;;;;13.32;8.82;;;;;;;4.85;75.04;101230.47;6273710;22;20023;-70
2023/01/07 00:28:56;;;;;;;17.27;8.38;;;;;;;4.67;75.69;101228.16;6246827;22;20405;-69
2023/01/07 00:31:26;;;;;;;15.85;8.40;;;;;;;4.70;75.78;101217.31;6271392;22;20025;-69
2023/01/07 00:36:22;;;;;;;11.85;8.77;;;;;;;4.74;75.62;101228.59;6241962;23;20024;-70
2023/01/07 00:38:57;;;;;;;12.63;8.00;;;;;;;4.81;75.54;101243.97;6241536;23;20051;-71
2023/01/07 00:41:24;;;;;;;13.10;7.90;;;;;;;4.65;75.35;101229.22;6240758;23;20091;-69
2023/01/07 00:43:51;;;;;;;12.38;8.32;;;;;;;4.76;75.31;101232.84;6241026;23;20055;-70
2023/01/07 00:46:18;;;;;;;13.65;8.50;;;;;;;4.68;75.68;101226.34;6242117;23;20095;-69
2023/01/07 00:48:44;;;;;;;13.52;8.43;;;;;;;4.49;76.36;101225.00;6240729;23;20020;-71
2023/01/07 00:51:13;;;;;;;15.32;8.13;;;;;;;4.53;76.45;101233.63;6241365;23;20035;-69
2023/01/07 00:53:40;;;;;;;12.10;7.80;;;;;;;4.51;76.32;101238.19;6241559;23;20020;-69
2023/01/07 00:56:08;;;;;;;13.98;8.63;;;;;;;4.43;76.80;101243.19;6240689;23;20134;-69
2023/01/07 00:58:35;;;;;;;13.48;8.75;;;;;;;4.58;76.49;101228.81;6241990;23;20467;-68
2023/01/07 01:01:02;;;;;;;13.77;8.35;;;;;;;4.52;76.54;101229.25;6243344;23;20020;-70
2023/01/07 01:03:29;;;;;;;12.23;8.15;;;;;;;4.45;76.74;101231.50;6242353;23;20441;-69
2023/01/07 01:06:04;;;;;;;12.85;8.57;;;;;;;4.54;76.02;101237.97;6238094;23;20023;-70
2023/01/07 01:08:31;;;;;;;11.35;7.05;;;;;;;4.52;76.38;101235.44;6242770;23;20484;-71
2023/01/07 01:11:05;;;;;;;11.32;8.13;;;;;;;4.56;76.46;101230.75;6240819;23;20438;-70
2023/01/07 01:13:32;;;;;;;11.63;7.82;;;;;;;4.45;76.92;101233.28;6242666;23;20042;-70
2023/01/07 01:15:59;;;;;;;14.27;8.15;;;;;;;4.52;76.68;101242.53;6240785;23;20020;-69
2023/01/07 01:18:26;;;;;;;12.52;7.50;;;;;;;4.50;76.40;101229.34;6242678;23;20030;-69
2023/01/07 01:20:53;;;;;;;9.98;7.53;;;;;;;4.29;76.74;101234.34;6242210;23;20394;-69
2023/01/07 01:23:21;;;;;;;9.95;7.65;;;;;;;4.37;76.63;101230.28;6241770;23;20091;-69
2023/01/07 01:25:47;;;;;;;12.10;7.30;;;;;;;4.56;76.37;101228.94;6242287;23;20024;-69
2023/01/07 01:28:14;;;;;;;9.48;6.75;;;;;;;4.46;76.86;101229.69;6242792;23;20027;-68
2023/01/07 01:30:40;;;;;;;9.65;6.82;;;;;;;4.45;76.58;101227.97;6240475;23;20471;-68
2023/01/07 01:33:07;;;;;;;9.77;6.28;;;;;;;4.42;76.88;101233.53;6234215;22;20413;-70
2023/01/07 01:35:38;;;;;;;10.52;6.40;;;;;;;4.17;77.67;101232.53;6242373;23;20055;-69
2023/01/07 01:38:05;;;;;;;11.52;6.32;;;;;;;4.41;77.02;101232.66;6242668;23;20386;-70
2023/01/07 01:40:31;;;;;;;9.90;6.78;;;;;;;4.48;77.32;101233.06;6243501;23;20454;-70
2023/01/07 01:42:57;;;;;;;11.60;7.10;;;;;;;4.48;77.30;101228.59;6242032;23;20026;-69
2023/01/07 01:45:24;;;;;;;13.10;7.20;;;;;;;4.51;77.30;101224.88;6242737;23;20099;-69
2023/01/07 01:47:54;;;;;;;9.45;6.68;;;;;;;4.45;77.50;101222.66;6236254;23;20047;-69
2023/01/07 01:50:42;;;;;;;12.57;7.80;;;;;;;4.53;77.57;101217.69;6240336;23;20334;-70
2023/01/07 01:53:31;;;;;;;9.63;6.72;;;;;;;4.68;76.79;101213.06;6242093;23;20020;-69
2023/01/07 01:56:03;;;;;;;11.43;7.38;;;;;;;4.62;76.98;101211.69;6214778;23;20087;-70
2023/01/07 01:58:35;;;;;;;11.15;6.80;;;;;;;4.61;76.79;101212.66;6242365;23;20016;-69
2023/01/07 02:01:02;;;;;;;13.88;7.35;;;;;;;4.67;76.51;101220.19;6237136;23;20392;-69
2023/01/07 02:03:32;;;;;;;10.85;7.63;;;;;;;4.67;76.46;101212.22;6241872;23;20020;-69
2023/01/07 02:09:39;;;;;;;15.00;7.07;;;;;;;4.70;76.63;101211.16;6240564;23;20030;-68
2023/01/07 02:12:11;;;;;;;13.38;8.07;;;;;;;4.54;77.07;101206.06;6242234;23;20022;-68
2023/01/07 02:14:38;;;;;;;11.65;7.22;;;;;;;4.57;77.23;101201.38;6241741;23;20334;-70
2023/01/07 02:17:20;;;;;;;12.57;7.75;;;;;;;4.46;77.78;101203.13;6242376;23;20160;-70
2023/01/07 02:20:14;;;;;;;9.23;6.90;;;;;;;4.60;77.50;101207.47;6242079;23;20024;-69
2023/01/07 02:23:22;;;;;;;11.93;7.20;;;;;;;4.68;77.32;101207.75;6242228;23;20445;-69
2023/01/07 02:26:07;;;;;;;10.65;7.22;;;;;;;4.61;77.27;101204.69;6090915;23;20034;-69
2023/01/07 02:28:59;;;;;;;14.27;8.18;;;;;;;4.44;78.01;101205.03;6090234;23;20034;-68
2023/01/07 02:31:50;;;;;;;12.65;8.50;;;;;;;4.48;78.57;101185.25;6090517;23;20043;-69
2023/01/07 02:34:38;;;;;;;12.00;7.97;;;;;;;4.55;78.01;101186.50;6090523;23;20032;-69
2023/01/07 02:37:13;;;;;;;14.00;8.98;;;;;;;4.33;78.54;101181.84;6089443;23;20026;-69
2023/01/07 02:39:49;;;;;;;14.93;9.93;;;;;;;4.44;78.80;101184.63;6091875;23;20022;-68
2023/01/07 02:42:56;;;;;;;17.08;10.40;;;;;;;4.37;79.24;101177.16;6092755;23;20022;-68
2023/01/07 02:48:08;;;;;;;18.73;11.00;;;;;;;4.41;79.10;101173.38;6293074;22;20031;-67
2023/01/07 03:01:33;;;;;;;23.67;12.95;;;;;;;4.32;79.43;101181.00;5125538;27;20377;-67
2023/01/07 03:10:12;;;;;;;22.63;15.93;;;;;;;4.44;79.61;101179.31;5081201;23;20089;-66
2023/01/07 03:12:51;;;;;;;23.35;15.77;;;;;;;4.33;80.02;101179.19;5403716;23;20041;-69
2023/01/07 03:15:40;;;;;;;23.77;16.10;;;;;;;4.33;80.15;101180.03;5032356;28;20033;-66
2023/01/07 03:20:54;;;;;;;28.83;17.13;;;;;;;4.39;80.44;101177.97;5457354;23;20141;-67
2023/01/07 03:23:25;;;;;;;28.02;16.80;;;;;;;4.31;80.57;101181.97;5031229;28;20030;-66
2023/01/07 03:25:54;;;;;;;26.85;17.08;;;;;;;4.41;80.01;101184.00;5032012;28;20102;-66
2023/01/07 03:30:54;;;;;;;28.95;17.27;;;;;;;4.47;79.80;101178.25;5281805;23;20042;-67
2023/01/07 03:33:26;;;;;;;27.23;16.48;;;;;;;4.47;79.82;101172.94;5077774;23;20121;-68
2023/01/07 03:35:56;;;;;;;24.08;17.02;;;;;;;4.45;80.41;101177.50;5051279;28;20069;-66
2023/01/07 03:38:26;;;;;;;22.75;15.93;;;;;;;4.36;80.02;101186.94;5051792;28;20061;-66
2023/01/07 03:40:53;;;;;;;25.08;17.05;;;;;;;4.47;80.87;101180.91;5051402;28;20029;-66
2023/01/07 03:43:21;;;;;;;23.35;16.98;;;;;;;4.68;79.70;101171.38;5051407;28;20093;-65
2023/01/07 03:45:51;;;;;;;25.50;16.48;;;;;;;4.66;79.56;101168.00;5050852;28;20109;-67
2023/01/07 03:48:18;;;;;;;22.33;15.90;;;;;;;4.74;79.18;101175.41;5051599;28;20089;-67
2023/01/07 03:50:44;;;;;;;24.15;16.23;;;;;;;4.60;79.75;101165.78;5051320;28;20033;-67
2023/01/07 03:53:10;;;;;;;25.63;16.30;;;;;;;4.53;80.01;101173.34;5050941;28;20034;-67
2023/01/07 03:55:37;;;;;;;23.90;16.30;;;;;;;4.69;79.74;101165.09;5050694;28;20068;-66
2023/01/07 03:58:03;;;;;;;23.17;17.25;;;;;;;4.57;79.78;101147.41;5051090;28;20092;-67
2023/01/07 04:00:30;;;;;;;26.48;16.52;;;;;;;4.71;79.64;101141.09;5047264;28;20065;-65
2023/01/07 04:02:56;;;;;;;23.85;16.80;;;;;;;4.52;79.87;101138.91;5046094;28;20056;-66
2023/01/07 04:05:23;;;;;;;27.05;17.67;;;;;;;4.42;80.65;101122.78;5056609;28;20061;-66
2023/01/07 04:07:49;;;;;;;24.13;16.85;;;;;;;4.31;81.13;101130.63;5057764;28;20048;-65
2023/01/07 04:10:16;;;;;;;23.70;17.10;;;;;;;4.45;81.03;101127.03;5146490;23;20032;-68
2023/01/07 04:12:42;;;;;;;24.05;17.15;;;;;;;4.48;80.74;101129.47;5164597;23;20242;-67
2023/01/07 04:15:09;;;;;;;26.88;16.83;;;;;;;4.34;81.28;101125.09;5077331;28;20057;-65
2023/01/07 04:17:36;;;;;;;25.05;16.52;;;;;;;4.36;81.29;101125.00;5077001;28;20053;-67
2023/01/07 04:20:02;;;;;;;28.48;17.35;;;;;;;4.29;81.59;101122.78;5076539;28;20085;-66
2023/01/07 04:22:29;;;;;;;24.98;17.13;;;;;;;4.44;81.07;101125.31;5077113;28;20052;-67
2023/01/07 04:24:56;;;;;;;26.65;17.63;;;;;;;4.36;80.91;101117.03;5076235;28;20060;-66
2023/01/07 04:29:58;;;;;;;23.70;16.70;;;;;;;4.51;80.81;101121.28;5168711;23;20038;-65
2023/01/07 04:32:25;;;;;;;27.00;17.20;;;;;;;4.39;80.91;101122.16;5056958;28;20053;-64
2023/01/07 04:34:51;;;;;;;26.50;16.80;;;;;;;4.47;81.07;101125.13;5057340;28;20038;-67
2023/01/07 04:37:17;;;;;;;28.98;16.73;;;;;;;4.42;81.01;101116.63;5055415;28;20169;-66
2023/01/07 04:39:44;;;;;;;23.42;16.20;;;;;;;4.33;81.34;101120.75;5054960;28;20049;-68
2023/01/07 04:42:10;;;;;;;22.88;16.60;;;;;;;4.57;80.70;101116.34;5052379;28;20047;-66
2023/01/07 04:44:37;;;;;;;25.20;16.85;;;;;;;4.76;79.88;101120.31;5052017;28;20108;-67
2023/01/07 04:47:03;;;;;;;22.42;16.35;;;;;;;4.50;80.46;101117.78;5051688;28;20054;-67
2023/01/07 04:49:30;;;;;;;24.67;16.70;;;;;;;4.50;80.81;101114.25;5051071;28;20048;-67
2023/01/07 04:51:56;;;;;;;22.55;16.30;;;;;;;4.55;80.32;101114.75;5050865;28;20049;-67
2023/01/07 04:54:23;;;;;;;24.83;16.77;;;;;;;4.47;80.87;101119.78;5050437;28;20056;-67
2023/01/07 04:56:49;;;;;;;24.20;17.42;;;;;;;4.69;80.45;101116.41;5050604;28;20060;-67
2023/01/07 04:59:16;;;;;;;22.80;16.67;;;;;;;4.68;80.05;101118.22;5049559;28;20044;-68
2023/01/07 05:01:42;;;;;;;22.05;16.52;;;;;;;4.68;79.92;101112.91;5039274;28;20117;-67
2023/01/07 05:04:09;;;;;;;21.75;15.32;;;;;;;4.76;80.09;101125.63;5030018;28;20052;-67
2023/01/07 05:06:35;;;;;;;23.30;15.60;;;;;;;4.68;79.38;101122.72;5030377;28;20077;-67
2023/01/07 05:09:02;;;;;;;24.13;15.40;;;;;;;4.72;79.78;101125.00;5030378;28;20061;-67
2023/01/07 05:11:28;;;;;;;23.15;15.68;;;;;;;4.94;79.14;101118.97;5030068;28;20042;-68
2023/01/07 05:13:59;;;;;;;22.70;14.85;;;;;;;4.92;79.13;101120.06;5028706;28;20062;-67
2023/01/07 05:16:25;;;;;;;26.30;14.98;;;;;;;4.71;79.64;101114.50;5030064;28;20132;-67
2023/01/07 05:18:52;;;;;;;22.88;15.38;;;;;;;4.84;79.53;101111.81;5029514;28;20080;-67
2023/01/07 05:21:18;;;;;;;21.52;15.00;;;;;;;4.68;80.26;101107.59;5030887;28;20145;-67
2023/01/07 05:23:45;;;;;;;22.83;16.70;;;;;;;4.73;79.81;101116.09;5031043;28;20109;-68
2023/01/07 05:26:11;;;;;;;25.80;15.90;;;;;;;4.76;79.86;101107.91;5014287;28;20542;-68
2023/01/07 05:28:37;;;;;;;19.83;15.05;;;;;;;4.74;79.90;101107.16;5030089;28;20109;-68
2023/01/07 05:31:04;;;;;;;22.48;15.77;;;;;;;4.71;80.17;101107.38;5030428;28;20570;-68
2023/01/07 05:33:31;;;;;;;23.17;15.35;;;;;;;4.79;80.03;101101.50;5029948;28;20046;-67
2023/01/07 05:35:57;;;;;;;19.90;15.02;;;;;;;4.85;79.79;101105.53;5028948;28;20113;-67
2023/01/07 05:38:24;;;;;;;18.90;14.45;;;;;;;4.85;79.35;101101.03;5030664;28;20050;-67
2023/01/07 05:40:50;;;;;;;19.77;14.27;;;;;;;5.09;78.68;101103.69;5031096;28;20550;-67
2023/01/07 05:43:17;;;;;;;23.55;15.00;;;;;;;5.19;77.83;101102.03;5029374;28;20081;-68
2023/01/07 05:45:45;;;;;;;20.00;13.63;;;;;;;5.12;78.23;101095.47;5031241;28;20045;-67
2023/01/07 05:48:12;;;;;;;21.25;15.23;;;;;;;5.08;78.59;101099.34;5029810;28;20041;-68
2023/01/07 05:50:39;;;;;;;20.42;13.88;;;;;;;5.12;78.61;101099.97;5028565;28;20100;-68
2023/01/07 05:53:05;;;;;;;18.23;14.43;;;;;;;5.07;78.40;101094.97;5029876;28;20064;-67
2023/01/07 05:55:32;;;;;;;18.45;14.25;;;;;;;5.15;78.67;101100.56;5029733;28;20065;-68
2023/01/07 05:57:58;;;;;;;18.48;13.52;;;;;;;5.10;78.50;101101.88;5029573;28;20064;-68
2023/01/07 06:00:25;;;;;;;19.13;13.27;;;;;;;5.12;78.51;101099.97;5028549;28;20105;-68
2023/01/07 06:02:51;;;;;;;21.73;14.25;;;;;;;5.01;79.08;101093.63;5029747;28;20046;-68
2023/01/07 06:05:18;;;;;;;18.80;13.43;;;;;;;5.04;78.89;101103.19;5011530;28;20042;-67
2023/01/07 06:07:45;;;;;;;18.83;13.10;;;;;;;5.03;79.16;101101.47;5030100;28;20072;-67
2023/01/07 06:10:11;;;;;;;17.13;12.45;;;;;;;5.03;79.21;101093.50;5030301;28;20060;-68
2023/01/07 06:12:37;;;;;;;17.05;11.90;;;;;;;5.03;79.37;101098.81;5030063;28;20042;-68
2023/01/07 06:15:06;;;;;;;19.95;13.20;;;;;;;4.92;79.68;101106.75;5029965;28;20046;-68
2023/01/07 06:17:33;;;;;;;18.08;13.18;;;;;;;4.87;80.17;101100.91;5029105;28;20049;-67
2023/01/07 06:20:00;;;;;;;17.63;13.00;;;;;;;4.95;80.63;101107.38;5028657;28;20080;-67
2023/01/07 06:22:26;;;;;;;20.85;14.13;;;;;;;4.98;80.36;101099.16;5026770;28;20060;-67
2023/01/07 06:24:53;;;;;;;23.70;14.27;;;;;;;5.13;80.42;101097.16;5026232;28;20042;-68
2023/01/07 06:27:20;;;;;;;24.35;15.30;;;;;;;5.08;80.28;101107.31;5026534;28;20125;-67
2023/01/07 06:29:46;;;;;;;17.95;13.15;;;;;;;4.97;80.40;101104.59;5026839;28;20050;-68
2023/01/07 06:32:13;;;;;;;21.58;13.10;;;;;;;4.97;80.66;101110.78;5027663;28;20132;-67
2023/01/07 06:34:39;;;;;;;17.85;13.40;;;;;;;5.19;79.82;101112.66;5025657;28;20562;-67
2023/01/07 06:37:06;;;;;;;20.73;12.85;;;;;;;4.95;80.96;101114.50;5028503;28;20061;-66
2023/01/07 06:39:32;;;;;;;19.77;12.10;;;;;;;5.03;80.76;101112.13;5027309;28;20042;-66
2023/01/07 06:41:59;;;;;;;17.63;12.52;;;;;;;5.01;81.11;101114.06;5021525;28;20056;-66
2023/01/07 06:44:25;;;;;;;15.98;11.88;;;;;;;4.86;81.41;101112.53;5020232;28;20073;-66
2023/01/07 06:46:52;;;;;;;17.15;12.60;;;;;;;5.06;80.85;101106.56;5019402;28;20058;-66
2023/01/07 06:49:18;;;;;;;24.90;13.40;;;;;;;4.85;81.24;101105.53;5016179;28;20053;-66
2023/01/07 06:51:45;;;;;;;15.65;12.68;;;;;;;4.86;81.72;101099.22;4998149;28;20046;-66
2023/01/07 06:54:11;;;;;;;16.75;12.68;;;;;;;4.80;81.66;101100.56;4996335;28;20058;-66
2023/01/07 06:56:38;;;;;;;19.48;13.00;;;;;;;4.67;82.27;101095.28;4996454;28;20056;-66
2023/01/07 06:59:04;;;;;;;20.05;13.00;;;;;;;4.81;81.37;101095.09;4995747;28;20049;-65
2023/01/07 07:01:31;;;;;;;17.70;12.38;;;;;;;4.89;81.31;101099.84;4977361;28;20038;-67
2023/01/07 07:03:57;;;;;;;20.45;12.63;;;;;;;4.81;81.59;101111.06;4999423;28;20065;-66
2023/01/07 07:06:24;;;;;;;21.00;13.05;;;;;;;4.76;81.86;101105.25;5002011;28;20418;-67
2023/01/07 07:08:50;;;;;;;22.15;13.57;;;;;;;4.90;81.81;101106.00;5013642;28;20052;-67
2023/01/07 07:11:17;;;;;;;23.48;12.70;;;;;;;4.98;81.32;101109.81;5013552;28;20057;-67
2023/01/07 07:13:43;;;;;;;22.88;13.88;;;;;;;4.87;81.65;101111.56;5013555;28;20052;-65
2023/01/07 07:16:10;;;;;;;20.60;13.55;;;;;;;4.98;81.07;101112.47;5012609;28;20048;-65
2023/01/07 07:18:36;;;;;;;19.05;12.90;;;;;;;4.99;81.01;101110.66;5013948;28;20060;-66
2023/01/07 07:21:03;;;;;;;20.55;13.68;;;;;;;5.05;81.00;101108.38;5014074;28;20106;-65
2023/01/07 07:23:29;;;;;;;18.50;14.00;;;;;;;5.11;80.71;101116.84;5013601;28;20050;-66
2023/01/07 07:25:56;;;;;;;20.38;13.38;;;;;;;5.00;80.95;101109.69;5013779;28;20415;-65
2023/01/07 07:28:22;;;;;;;20.02;12.80;;;;;;;5.02;81.13;101113.94;5014685;28;20038;-64
2023/01/07 07:30:49;;;;;;;19.33;14.40;;;;;;;4.90;81.04;101117.53;5014530;28;20037;-66
2023/01/07 07:33:17;;;;;;;18.02;13.52;;;;;;;5.03;81.19;101112.13;5014947;28;20046;-65
2023/01/07 07:35:45;;;;;;;19.85;12.27;;;;;;;5.01;81.13;101111.41;5015149;28;20038;-65
2023/01/07 07:38:11;;;;;;;20.77;14.35;;;;;;;4.86;81.69;101117.84;5016695;28;20065;-66
2023/01/07 07:40:38;;;;;;;20.80;14.32;;;;;;;4.95;81.66;101119.81;5016605;28;20050;-66
2023/01/07 07:43:04;;;;;;;17.05;13.00;;;;;;;4.99;81.71;101114.16;5016922;28;20069;-66
2023/01/07 07:45:38;;;;;;;21.10;14.15;;;;;;;4.96;81.53;101119.69;5015998;28;20057;-66
2023/01/07 07:48:06;;;;;;;16.17;12.48;;;;;;;4.82;81.74;101120.72;5017153;28;20131;-66
2023/01/07 07:50:34;;;;;;;16.17;11.70;;;;;;;4.88;82.10;101121.25;5016629;28;20046;-65
2023/01/07 07:53:00;;;;;;;19.42;12.35;;;;;;;4.99;81.54;101126.59;5016399;28;20073;-66
2023/01/07 07:55:27;;;;;;;15.48;11.35;;;;;;;4.87;81.74;101122.19;5016116;28;20053;-66
2023/01/07 07:57:55;;;;;;;13.95;10.80;;;;;;;4.85;81.95;101116.16;5017344;28;20474;-66
2023/01/07 08:00:23;;;;;;;15.30;11.93;;;;;;;4.83;81.25;101126.88;5015728;28;20046;-66
2023/01/07 08:02:49;;;;;;;16.02;11.60;;;;;;;5.04;81.15;101119.16;5016807;28;20046;-66
2023/01/07 08:05:16;;;;;;;13.15;10.52;;;;;;;4.98;81.69;101119.59;5016432;28;20082;-65
2023/01/07 08:07:42;;;;;;;12.50;9.75;;;;;;;4.88;81.92;101118.59;5016149;28;20046;-66
2023/01/07 08:10:09;;;;;;;16.60;10.30;;;;;;;5.10;81.14;101129.31;5015347;28;20129;-66
2023/01/07 08:12:37;;;;;;;14.45;10.68;;;;;;;5.02;81.08;101111.28;5016294;28;20057;-66
2023/01/07 08:15:05;;;;;;;13.43;9.75;;;;;;;5.05;81.34;101115.53;5015429;28;20129;-66
2023/01/07 08:17:31;;;;;;;17.40;9.32;;;;;;;5.00;81.23;101112.34;5014738;28;20049;-66
2023/01/07 08:19:58;;;;;;;11.68;9.07;;;;;;;5.03;81.10;101106.78;5014622;28;20132;-66
2023/01/07 08:22:24;;;;;;;12.90;9.23;;;;;;;5.12;80.94;101106.13;5014394;28;20050;-67
2023/01/07 08:24:51;;;;;;;15.52;9.27;;;;;;;5.19;80.60;101107.34;5015979;28;20041;-65
2023/01/07 08:27:18;;;;;;;13.82;9.82;;;;;;;5.28;80.28;101117.31;5013192;28;20056;-66
2023/01/07 08:29:44;;;;;;;18.93;8.90;;;;;;;5.02;80.54;101113.94;5009917;28;20054;-66
2023/01/07 08:32:11;;;;;;;13.18;8.75;;;;;;;5.11;80.26;101109.75;5016219;28;20060;-66
2023/01/07 08:34:38;;;;;;;11.50;7.60;;;;;;;5.08;80.78;101104.66;5014938;28;20499;-67
2023/01/07 08:37:04;;;;;;;10.10;8.25;;;;;;;5.27;79.91;101112.09;5014342;28;20136;-66
2023/01/07 08:39:31;;;;;;;10.45;7.97;;;;;;;5.41;79.81;101114.53;5015029;28;20042;-66
2023/01/07 08:41:57;;;;;;;13.05;8.52;;;;;;;5.56;78.87;101114.31;5014899;28;20053;-66
2023/01/07 08:44:24;;;;;;;14.93;9.00;;;;;;;5.60;78.68;101115.81;5015308;28;20121;-66
2023/01/07 08:46:52;;;;;;;21.90;12.98;;;;;;;5.59;78.70;101112.28;5013550;28;20056;-65
2023/01/07 08:49:19;;;;;;;19.75;11.45;;;;;;;5.55;79.18;101108.16;5014123;28;20042;-66
2023/01/07 08:51:45;;;;;;;20.55;10.82;;;;;;;5.61;79.05;101101.53;5014111;28;20046;-67
2023/01/07 08:54:12;;;;;;;19.40;10.27;;;;;;;5.57;78.79;101108.91;5014355;28;20046;-67
2023/01/07 08:56:39;;;;;;;17.30;9.85;;;;;;;5.61;78.93;101112.16;5014791;28;20049;-65
2023/01/07 08:59:05;;;;;;;12.07;8.68;;;;;;;5.48;79.15;101105.13;5014856;28;20045;-66
2023/01/07 09:01:32;;;;;;;11.82;8.00;;;;;;;5.70;78.57;101100.81;5014890;28;20064;-66
2023/01/07 09:03:59;;;;;;;14.75;7.80;;;;;;;5.60;78.33;101107.81;5014555;28;20128;-67
2023/01/07 09:06:25;;;;;;;11.13;7.05;;;;;;;5.38;79.10;101108.59;5015206;28;20045;-66
2023/01/07 09:08:51;;;;;;;14.75;7.72;;;;;;;5.60;78.91;101105.16;5014768;28;20042;-66
2023/01/07 09:11:18;;;;;;;10.43;7.07;;;;;;;5.63;78.24;101104.91;5014851;28;20052;-66
2023/01/07 09:13:45;;;;;;;9.27;7.15;;;;;;;5.66;78.47;101097.53;5015192;28;20060;-67
2023/01/07 09:16:11;;;;;;;12.80;7.35;;;;;;;5.73;78.37;101101.44;5014263;28;20050;-65
2023/01/07 09:18:38;;;;;;;12.73;8.15;;;;;;;5.82;78.23;101104.34;5015476;28;20076;-66
2023/01/07 09:21:05;;;;;;;13.07;8.13;;;;;;;5.68;78.03;101095.59;5015094;28;20503;-68
2023/01/07 09:23:31;;;;;;;11.35;7.95;;;;;;;5.76;78.22;101095.00;5013920;28;20042;-67
2023/01/07 09:25:58;;;;;;;10.98;7.25;;;;;;;5.69;78.35;101097.28;5014843;28;20046;-65
2023/01/07 09:28:24;;;;;;;7.20;6.05;;;;;;;5.95;77.61;101099.75;5015241;28;20100;-65
2023/01/07 09:30:51;;;;;;;11.43;6.07;;;;;;;5.63;78.42;101097.78;5014205;28;20046;-66
2023/01/07 09:33:17;;;;;;;7.82;6.18;;;;;;;5.73;78.22;101095.22;5014109;28;20057;-66
2023/01/07 09:35:44;;;;;;;8.20;5.60;;;;;;;5.86;77.61;101100.47;5014917;28;20045;-66
2023/01/07 09:38:10;;;;;;;8.48;5.53;;;;;;;5.82;77.66;101102.50;5014538;28;20495;-66
2023/01/07 09:40:40;;;;;;;8.32;6.03;;;;;;;5.84;77.42;101103.25;5015352;28;20053;-66
2023/01/07 09:43:26;;;;;;;8.15;5.55;;;;;;;5.84;77.72;101094.41;5014232;28;20079;-67
2023/01/07 09:46:14;;;;;;;7.38;5.30;;;;;;;5.91;77.51;101100.97;5014203;28;20558;-67
2023/01/07 09:48:52;;;;;;;8.95;6.25;;;;;;;6.22;76.50;101100.22;5014219;28;20061;-66
2023/01/07 09:51:42;;;;;;;9.82;5.07;;;;;;;6.05;76.30;101095.38;5013935;28;20053;-66
2023/01/07 09:54:25;;;;;;;8.45;5.05;;;;;;;6.10;76.37;101095.84;5013874;28;20048;-68
2023/01/07 09:56:51;;;;;;;7.38;5.10;;;;;;;6.26;75.80;101097.34;5014216;28;20102;-66
2023/01/07 09:59:18;;;;;;;5.78;5.18;;;;;;;6.18;76.03;101101.44;5013393;28;20048;-67
2023/01/07 10:01:58;;;;;;;9.88;4.95;;;;;;;6.30;75.87;101086.31;5014457;28;20058;-67
2023/01/07 10:04:35;;;;;;;6.78;5.10;;;;;;;6.18;76.11;101085.44;5014040;28;20050;-67
2023/01/07 10:07:21;;;;;;;7.63;4.80;;;;;;;6.19;76.26;101084.47;5015054;28;20056;-66
2023/01/07 10:10:07;;;;;;;7.07;5.32;;;;;;;6.27;76.20;101083.03;4968322;28;20045;-68
2023/01/07 10:12:44;;;;;;;6.15;5.25;;;;;;;6.41;75.90;101080.94;5014799;28;20042;-67
2023/01/07 10:15:21;;;;;;;5.60;4.55;;;;;;;6.19;76.82;101076.47;5015693;28;20045;-67
2023/01/07 10:18:07;;;;;;;7.38;4.88;;;;;;;6.35;75.89;101076.09;5015938;28;20050;-67
2023/01/07 10:20:45;;;;;;;8.30;5.05;;;;;;;6.37;75.78;101081.31;5015893;28;20050;-67
2023/01/07 10:23:31;;;;;;;6.43;4.85;;;;;;;6.47;75.81;101074.28;5016016;28;20041;-68
2023/01/07 10:26:00;;;;;;;5.70;4.57;;;;;;;6.62;75.36;101062.34;5012369;28;20490;-71
2023/01/07 10:28:43;;;;;;;6.32;5.20;;;;;;;6.55;75.39;101058.50;5010775;28;20049;-71
2023/01/07 10:31:20;;;;;;;7.95;4.50;;;;;;;6.67;74.96;101054.84;5009355;28;20057;-70
2023/01/07 10:33:48;;;;;;;6.38;4.43;;;;;;;6.74;74.79;101043.63;5010445;28;20060;-71
2023/01/07 10:36:33;;;;;;;6.25;4.03;;;;;;;6.66;74.08;101047.78;5010434;28;20476;-70
2023/01/07 10:39:29;;;;;;;5.30;4.18;;;;;;;6.87;74.03;101041.66;5009438;28;20046;-70
2023/01/07 10:42:19;;;;;;;7.53;3.88;;;;;;;6.63;73.88;101042.75;5009618;28;20398;-71
2023/01/07 10:45:14;;;;;;;5.03;3.70;;;;;;;6.46;74.19;101041.47;5010102;28;20054;-70
2023/01/07 10:47:59;;;;;;;4.50;3.70;;;;;;;6.54;74.61;101038.16;5009905;28;20046;-71
2023/01/07 10:50:26;;;;;;;6.07;3.58;;;;;;;6.62;74.43;101040.19;5010102;28;20042;-71
2023/01/07 10:53:09;;;;;;;7.70;3.55;;;;;;;6.87;73.77;101033.66;5010040;28;20064;-71
2023/01/07 10:55:47;;;;;;;9.52;3.35;;;;;;;7.09;72.80;101033.53;5008227;28;20391;-70
2023/01/07 10:58:14;;;;;;;6.55;3.17;;;;;;;7.16;72.43;101032.06;5009687;28;20130;-71
2023/01/07 11:00:41;;;;;;;6.57;3.22;;;;;;;7.17;72.34;101025.72;5009421;28;20048;-69
2023/01/07 11:03:23;;;;;;;6.13;3.42;;;;;;;7.01;72.05;101030.66;5009805;28;20128;-70
2023/01/07 11:06:01;;;;;;;4.85;3.30;;;;;;;7.03;72.24;101020.72;4990037;28;20046;-70
2023/01/07 11:08:35;;;;;;;7.78;3.08;;;;;;;7.11;72.55;101020.91;4980136;28;20050;-70
2023/01/07 11:11:03;;;;;;;4.97;2.97;;;;;;;7.24;72.07;101012.72;4990919;28;20513;-70
2023/01/07 11:13:34;;;;;;;7.43;3.42;;;;;;;7.28;71.80;101002.63;4993123;28;20128;-71
2023/01/07 11:16:20;;;;;;;6.63;4.05;;;;;;;7.23;71.76;101005.69;4993055;28;20050;-71
2023/01/07 11:18:57;;;;;;;4.43;2.90;;;;;;;7.19;71.42;101002.44;4993332;28;20129;-71
2023/01/07 11:21:37;;;;;;;4.78;2.75;;;;;;;7.68;70.30;100986.66;4993697;28;20070;-70
2023/01/07 11:24:18;;;;;;;4.95;2.53;;;;;;;7.62;70.55;100985.38;4993625;28;20443;-70
2023/01/07 11:26:45;;;;;;;2.42;2.10;;;;;;;7.36;70.63;100986.78;4993690;28;20133;-70
2023/01/07 11:29:24;;;;;;;3.83;2.30;;;;;;;7.44;70.41;100984.31;4992939;28;20486;-70
2023/01/07 11:31:53;;;;;;;6.40;3.00;;;;;;;7.69;70.24;100982.16;4993411;28;20042;-70
2023/01/07 11:34:27;;;;;;;3.75;2.58;;;;;;;7.42;70.78;100986.25;4987331;28;20046;-71
2023/01/07 11:36:53;;;;;;;8.93;2.65;;;;;;;7.65;70.13;100974.41;4993592;28;20050;-69
2023/01/07 11:39:26;;;;;;;3.15;2.20;;;;;;;7.73;69.85;100983.56;4993004;28;20050;-71
2023/01/07 11:41:56;;;;;;;3.72;1.90;;;;;;;7.53;70.14;100978.16;5005324;28;20045;-70
2023/01/07 11:44:23;;;;;;;4.03;2.42;;;;;;;7.41;70.59;100979.22;5012706;28;20157;-71
2023/01/07 11:46:51;;;;;;;5.05;2.22;;;;;;;7.58;69.91;100965.25;5012316;28;20130;-69
2023/01/07 11:49:27;;;;;;;4.00;2.05;;;;;;;7.36;70.58;100968.09;5012274;28;20052;-70
2023/01/07 11:51:55;;;;;;;2.53;1.90;;;;;;;7.52;70.27;100968.47;5013139;28;20077;-70
2023/01/07 11:54:25;;;;;;;3.38;2.22;;;;;;;7.57;69.96;100965.38;5011320;28;20056;-71
2023/01/07 11:56:52;;;;;;;3.08;2.30;;;;;;;7.53;69.99;100962.13;5013478;28;20092;-71
2023/01/07 11:59:28;;;;;;;5.18;2.20;;;;;;;7.41;70.03;100958.72;5012346;28;20120;-71
2023/01/07 12:02:00;;;;;;;3.85;2.20;;;;;;;7.49;69.60;100955.38;5013211;28;20128;-71
2023/01/07 12:04:27;;;;;;;;;;;;;;;7.37;70.33;100943.97;5013030;28;20107;-70
2023/01/07 12:07:00;;;;;;;5.97;1.90;;;;;;;7.29;70.25;100954.47;5012917;28;19921;-69
2023/01/07 12:09:33;;;;;;;4.13;1.80;;;;;;;7.39;70.07;100947.31;5012625;28;20064;-70
2023/01/07 12:12:06;;;;;;;3.58;1.92;;;;;;;7.38;69.72;100942.97;5012215;28;20044;-71